• Join FlightAware (Why Join?)
  • Login
  • US Flag 
11:20AM EDT


 

Airport Tracker/Info


-or-


 

Live Flight TrackerFlight Track Log ✈ EJA583 ✈ 12-Sep-2013 ✈ KLAS - KLAX

Flight Track Log - Related Links

Times and Time Zones

All times are in EDT time to prevent confusion due to time zone crossing. See the EJA583 flight status page for this flight to view local times or setup timezone preferences in your user account.

Time Position Orientation Groundspeed Altitude Reporting Facility
EDT Latitude Longitude Course Direction KTS MPH feet Rate Location/Type
04:25PM 36.0756 -115.1658 270° West 216 249 3,200  Level Los Angeles Center
04:26PM 36.0758 -115.2161 270° West 212 244 5,900 2,160 Climbing Los Angeles Center
04:27PM 36.0258 -115.2750 224° Southwest 280 322 7,000 900 Climbing Los Angeles Center
04:27PM 36.0364 -115.2700 21° North 256 295 6,900 1,620 Descending Los Angeles Center
04:28PM 35.9433 -115.3039 196° South 286 329 8,800 2,160 Climbing Los Angeles Center
04:29PM 35.8639 -115.3150 186° South 300 345 11,200 2,400 Climbing Los Angeles Center
04:29PM 35.8600 -115.3125 152° Southeast 295 339 11,300 2,160 Climbing Los Angeles Center
04:30PM 35.7739 -115.3050 176° South 304 350 13,700 2,640 Climbing Los Angeles Center
04:30PM 35.7581 -115.3044 178° South 315 362 14,300 2,400 Climbing Los Angeles Center
04:31PM 35.6847 -115.3017 178° South 314 361 16,200 2,160 Climbing Los Angeles Center
04:32PM 35.6189 -115.3725 221° Southwest 312 359 18,600 1,800 Climbing Los Angeles Center
04:33PM 35.5592 -115.4519 227° Southwest 312 359 20,000 1,440 Climbing Los Angeles Center
04:34PM 35.4781 -115.5617 228° Southwest 340 391 21,600 1,500 Climbing Los Angeles Center
04:35PM 35.4086 -115.6572 228° Southwest 370 426 23,200 1,560 Climbing Los Angeles Center
04:36PM 35.3381 -115.7508 227° Southwest 375 432 24,900 1,440 Climbing Los Angeles Center
04:37PM 35.2644 -115.8489 227° Southwest 377 434 26,200 1,080 Climbing Los Angeles Center
04:38PM 35.1928 -115.9422 227° Southwest 387 445 27,200 840 Climbing Los Angeles Center
04:39PM 35.1183 -116.0425 228° Southwest 396 456 28,000 360 Climbing Los Angeles Center
04:40PM 35.0133 -116.1569 222° Southwest 419 482 28,000  Level Los Angeles Center
04:41PM 34.9217 -116.2553 221° Southwest 434 499 28,000  Level Los Angeles Center
04:42PM 34.8311 -116.3511 221° Southwest 433 498 28,000  Level Los Angeles Center
04:43PM 34.7414 -116.4453 221° Southwest 427 491 28,000  Level Los Angeles Center
04:44PM 34.6528 -116.5397 221° Southwest 422 486 28,000  Level Los Angeles Center
04:45PM 34.5631 -116.6325 220° Southwest 423 487 28,000 -180 Level Los Angeles Center
04:46PM 34.4556 -116.7444 221° Southwest 423 487 27,700 -1,260 Descending Los Angeles Center
04:47PM 34.3647 -116.8397 221° Southwest 431 496 25,400 -2,280 Descending Los Angeles Center
04:48PM 34.2728 -116.9353 221° Southwest 434 499 23,100 -2,160 Descending Los Angeles Center
04:50PM 34.1844 -117.0269 221° Southwest 420 483 20,900 -2,220 Descending Los Angeles Center
04:50PM 34.1167 -117.1000 222° Southwest 405 466 19,300 -1,500 Descending Southern California TRACON
04:52PM 34.0333 -117.3333 247° West 338 389 16,800 -1,980 Descending Southern California TRACON
04:53PM 34.0333 -117.4333 270° West 354 407 13,400 -1,680 Descending Southern California TRACON
04:55PM 34.0000 -117.6667 260° West 325 374 11,900 -1,080 Descending Southern California TRACON
04:56PM 34.0000 -117.7500 270° West 285 328 10,300 -1,680 Descending Southern California TRACON
04:57PM 33.9833 -117.8500 259° West 271 312 8,600 -1,440 Descending Southern California TRACON
04:58PM 33.9833 -117.9333 270° West 241 277 7,300 -1,260 Descending Southern California TRACON
04:59PM 33.9667 -118.0167 256° West 217 250 6,100 -1,200 Descending Southern California TRACON
05:00PM 33.9667 -118.0833 270° West 219 252 4,900 -1,200 Descending Southern California TRACON
05:01PM 33.9667 -118.1500 270° West 220 253 3,800 -1,080 Descending Southern California TRACON
05:02PM 33.9581 -118.1833 253° West 220 253 3,200 -1,140 Descending Los Angeles Center
05:03PM 33.9494 -118.2656 263° West 214 246 2,000 -1,020 Descending Los Angeles Center
05:04PM 33.9433 -118.3225 263° West 193 222 1,200 -720 Descending Los Angeles Center
05:05PM 33.9397 -118.3694 265° West 163 188 500 -480 Descending Los Angeles Center
05:06PM 33.9339 -118.4106 260° West 144 166 300 -240 Descending Los Angeles Center
05:08PM 33.9333 -118.4000 North  Level FlightAware Approximate
05:15PM 33.9425 -118.4081 North  Level Estimated
05:16PM 33.9425 -118.4081 North  Level Estimated
05:17PM 33.9425 -118.4081 North  Level Estimated
05:18PM 33.9425 -118.4081 North  Level Estimated
05:19PM 33.9425 -118.4081 North  Level Estimated
05:20PM 33.9425 -118.4081 North  Level Estimated
05:21PM 33.9425 -118.4081 North  Level Estimated
05:22PM 33.9425 -118.4081 North  Level Estimated